sensor_id;sensor_type;location;lat;lon;timestamp;temperature;humidity
11963;DHT22;62678;52.130;5.584;2023-02-28T00:00:36;2.00;99.90
11963;DHT22;62678;52.130;5.584;2023-02-28T00:03:04;2.00;99.90
11963;DHT22;62678;52.130;5.584;2023-02-28T00:05:31;2.10;99.90
11963;DHT22;62678;52.130;5.584;2023-02-28T00:07:58;2.00;99.90
11963;DHT22;62678;52.130;5.584;2023-02-28T00:10:26;2.10;99.90
11963;DHT22;62678;52.130;5.584;2023-02-28T00:12:54;2.20;99.90
11963;DHT22;62678;52.130;5.584;2023-02-28T00:15:23;2.20;99.90
11963;DHT22;62678;52.130;5.584;2023-02-28T00:17:51;2.20;99.90
11963;DHT22;62678;52.130;5.584;2023-02-28T00:20:19;2.30;99.90
11963;DHT22;62678;52.130;5.584;2023-02-28T00:22:48;2.40;99.90
11963;DHT22;62678;52.130;5.584;2023-02-28T00:25:16;2.50;99.90
11963;DHT22;62678;52.130;5.584;2023-02-28T00:27:44;2.50;99.90
11963;DHT22;62678;52.130;5.584;2023-02-28T00:30:12;2.50;99.90
11963;DHT22;62678;52.130;5.584;2023-02-28T00:32:39;2.60;99.90
11963;DHT22;62678;52.130;5.584;2023-02-28T00:35:09;2.60;99.90
11963;DHT22;62678;52.130;5.584;2023-02-28T00:37:37;2.70;99.90
11963;DHT22;62678;52.130;5.584;2023-02-28T00:40:05;2.70;99.90
11963;DHT22;62678;52.130;5.584;2023-02-28T00:42:32;2.80;99.90
11963;DHT22;62678;52.130;5.584;2023-02-28T00:44:59;2.80;99.90
11963;DHT22;62678;52.130;5.584;2023-02-28T00:47:26;2.90;99.90
11963;DHT22;62678;52.130;5.584;2023-02-28T00:49:53;2.90;99.90
11963;DHT22;62678;52.130;5.584;2023-02-28T00:52:21;2.80;99.90
11963;DHT22;62678;52.130;5.584;2023-02-28T00:54:48;3.00;99.90
11963;DHT22;62678;52.130;5.584;2023-02-28T00:57:15;3.00;99.90
11963;DHT22;62678;52.130;5.584;2023-02-28T00:59:42;3.00;99.90
11963;DHT22;62678;52.130;5.584;2023-02-28T01:02:09;3.00;99.90
11963;DHT22;62678;52.130;5.584;2023-02-28T01:04:35;3.00;99.90
11963;DHT22;62678;52.130;5.584;2023-02-28T01:07:02;3.10;99.90
11963;DHT22;62678;52.130;5.584;2023-02-28T01:09:31;3.10;99.90
11963;DHT22;62678;52.130;5.584;2023-02-28T01:11:58;3.10;99.90
11963;DHT22;62678;52.130;5.584;2023-02-28T01:14:25;3.10;99.90
11963;DHT22;62678;52.130;5.584;2023-02-28T01:16:51;3.20;99.90
11963;DHT22;62678;52.130;5.584;2023-02-28T01:19:18;3.20;99.90
11963;DHT22;62678;52.130;5.584;2023-02-28T01:21:45;3.10;99.90
11963;DHT22;62678;52.130;5.584;2023-02-28T01:24:13;3.20;99.90
11963;DHT22;62678;52.130;5.584;2023-02-28T01:26:41;3.20;99.90
11963;DHT22;62678;52.130;5.584;2023-02-28T01:29:08;3.20;99.90
11963;DHT22;62678;52.130;5.584;2023-02-28T01:31:35;3.20;99.90
11963;DHT22;62678;52.130;5.584;2023-02-28T01:34:02;3.30;99.90
11963;DHT22;62678;52.130;5.584;2023-02-28T01:36:29;3.30;99.90
11963;DHT22;62678;52.130;5.584;2023-02-28T01:38:56;3.30;99.90
11963;DHT22;62678;52.130;5.584;2023-02-28T01:41:26;3.30;99.90
11963;DHT22;62678;52.130;5.584;2023-02-28T01:44:01;3.30;99.90
11963;DHT22;62678;52.130;5.584;2023-02-28T01:46:33;3.30;99.90
11963;DHT22;62678;52.130;5.584;2023-02-28T01:49:06;3.30;99.90
11963;DHT22;62678;52.130;5.584;2023-02-28T01:51:39;3.40;99.90
11963;DHT22;62678;52.130;5.584;2023-02-28T01:54:14;3.40;99.90
11963;DHT22;62678;52.130;5.584;2023-02-28T01:56:45;3.40;99.90
11963;DHT22;62678;52.130;5.584;2023-02-28T01:59:21;3.40;99.90
11963;DHT22;62678;52.130;5.584;2023-02-28T02:01:49;3.40;99.90
11963;DHT22;62678;52.130;5.584;2023-02-28T02:04:16;3.30;99.90
11963;DHT22;62678;52.130;5.584;2023-02-28T02:06:44;3.40;99.90
11963;DHT22;62678;52.130;5.584;2023-02-28T02:09:14;3.40;99.90
11963;DHT22;62678;52.130;5.584;2023-02-28T02:11:42;3.30;99.90
11963;DHT22;62678;52.130;5.584;2023-02-28T02:14:41;3.40;99.90
11963;DHT22;62678;52.130;5.584;2023-02-28T02:17:18;3.40;99.90
11963;DHT22;62678;52.130;5.584;2023-02-28T02:25:43;3.30;99.90
11963;DHT22;62678;52.130;5.584;2023-02-28T02:28:41;3.40;99.90
11963;DHT22;62678;52.130;5.584;2023-02-28T02:31:47;3.40;99.90
11963;DHT22;62678;52.130;5.584;2023-02-28T02:34:38;3.50;99.90
11963;DHT22;62678;52.130;5.584;2023-02-28T02:37:14;3.40;99.90
11963;DHT22;62678;52.130;5.584;2023-02-28T02:39:50;3.40;99.90
11963;DHT22;62678;52.130;5.584;2023-02-28T02:42:23;3.40;99.90
11963;DHT22;62678;52.130;5.584;2023-02-28T02:44:56;3.50;99.90
11963;DHT22;62678;52.130;5.584;2023-02-28T02:47:27;3.50;99.90
11963;DHT22;62678;52.130;5.584;2023-02-28T02:49:59;3.50;99.90
11963;DHT22;62678;52.130;5.584;2023-02-28T02:52:34;3.60;99.90
11963;DHT22;62678;52.130;5.584;2023-02-28T02:55:03;3.60;99.90
11963;DHT22;62678;52.130;5.584;2023-02-28T02:57:34;3.60;99.90
11963;DHT22;62678;52.130;5.584;2023-02-28T03:00:05;3.60;99.90
11963;DHT22;62678;52.130;5.584;2023-02-28T03:02:34;3.60;99.90
11963;DHT22;62678;52.130;5.584;2023-02-28T03:05:08;3.60;99.90
11963;DHT22;62678;52.130;5.584;2023-02-28T03:07:39;3.70;99.90
11963;DHT22;62678;52.130;5.584;2023-02-28T03:10:31;3.60;99.90
11963;DHT22;62678;52.130;5.584;2023-02-28T03:13:08;3.60;99.90
11963;DHT22;62678;52.130;5.584;2023-02-28T03:15:43;3.60;99.90
11963;DHT22;62678;52.130;5.584;2023-02-28T03:18:22;3.70;99.90
11963;DHT22;62678;52.130;5.584;2023-02-28T03:21:00;3.60;99.90
11963;DHT22;62678;52.130;5.584;2023-02-28T03:23:35;3.70;99.90
11963;DHT22;62678;52.130;5.584;2023-02-28T03:26:06;3.70;99.90
11963;DHT22;62678;52.130;5.584;2023-02-28T03:28:41;3.70;99.90
11963;DHT22;62678;52.130;5.584;2023-02-28T03:31:16;3.70;99.90
11963;DHT22;62678;52.130;5.584;2023-02-28T03:33:48;3.60;99.90
11963;DHT22;62678;52.130;5.584;2023-02-28T03:36:24;3.50;99.90
11963;DHT22;62678;52.130;5.584;2023-02-28T03:38:55;3.50;99.90
11963;DHT22;62678;52.130;5.584;2023-02-28T03:41:25;3.60;99.90
11963;DHT22;62678;52.130;5.584;2023-02-28T03:43:55;3.50;99.90
11963;DHT22;62678;52.130;5.584;2023-02-28T03:46:25;3.50;99.90
11963;DHT22;62678;52.130;5.584;2023-02-28T03:48:57;3.40;99.90
11963;DHT22;62678;52.130;5.584;2023-02-28T03:51:29;3.50;99.90
11963;DHT22;62678;52.130;5.584;2023-02-28T03:53:59;3.50;99.90
11963;DHT22;62678;52.130;5.584;2023-02-28T03:56:33;3.40;99.90
11963;DHT22;62678;52.130;5.584;2023-02-28T03:59:04;3.40;99.90
11963;DHT22;62678;52.130;5.584;2023-02-28T04:01:35;3.30;99.90
11963;DHT22;62678;52.130;5.584;2023-02-28T04:04:04;3.40;99.90
11963;DHT22;62678;52.130;5.584;2023-02-28T04:06:33;3.40;99.90
11963;DHT22;62678;52.130;5.584;2023-02-28T04:09:00;3.30;99.90
11963;DHT22;62678;52.130;5.584;2023-02-28T04:11:33;3.40;99.90
11963;DHT22;62678;52.130;5.584;2023-02-28T04:14:01;3.30;99.90
11963;DHT22;62678;52.130;5.584;2023-02-28T04:16:28;3.20;99.90
11963;DHT22;62678;52.130;5.584;2023-02-28T04:18:55;3.10;99.90
11963;DHT22;62678;52.130;5.584;2023-02-28T04:21:27;3.10;99.90
11963;DHT22;62678;52.130;5.584;2023-02-28T04:23:56;3.10;99.90
11963;DHT22;62678;52.130;5.584;2023-02-28T04:26:27;3.00;99.90
11963;DHT22;62678;52.130;5.584;2023-02-28T04:28:55;3.10;99.90
11963;DHT22;62678;52.130;5.584;2023-02-28T04:31:22;3.10;99.90
11963;DHT22;62678;52.130;5.584;2023-02-28T04:33:48;3.10;99.90
11963;DHT22;62678;52.130;5.584;2023-02-28T04:36:15;3.10;99.90
11963;DHT22;62678;52.130;5.584;2023-02-28T04:38:44;3.30;99.90
11963;DHT22;62678;52.130;5.584;2023-02-28T04:41:12;3.20;99.90
11963;DHT22;62678;52.130;5.584;2023-02-28T04:43:39;3.10;99.90
11963;DHT22;62678;52.130;5.584;2023-02-28T04:46:08;3.10;99.90
11963;DHT22;62678;52.130;5.584;2023-02-28T04:48:38;2.90;99.90
11963;DHT22;62678;52.130;5.584;2023-02-28T04:51:08;2.80;99.90
11963;DHT22;62678;52.130;5.584;2023-02-28T04:53:36;3.00;99.90
11963;DHT22;62678;52.130;5.584;2023-02-28T04:56:04;3.00;99.90
11963;DHT22;62678;52.130;5.584;2023-02-28T04:58:33;2.90;99.90
11963;DHT22;62678;52.130;5.584;2023-02-28T05:01:02;2.80;99.90
11963;DHT22;62678;52.130;5.584;2023-02-28T05:03:29;2.80;99.90
11963;DHT22;62678;52.130;5.584;2023-02-28T05:05:56;2.60;99.90
11963;DHT22;62678;52.130;5.584;2023-02-28T05:08:23;2.80;99.90
11963;DHT22;62678;52.130;5.584;2023-02-28T05:10:50;2.70;99.90
11963;DHT22;62678;52.130;5.584;2023-02-28T05:13:17;2.60;99.90
11963;DHT22;62678;52.130;5.584;2023-02-28T05:15:45;2.70;99.90
11963;DHT22;62678;52.130;5.584;2023-02-28T05:18:12;2.70;99.90
11963;DHT22;62678;52.130;5.584;2023-02-28T05:20:39;2.80;99.90
11963;DHT22;62678;52.130;5.584;2023-02-28T05:23:05;2.80;99.90
11963;DHT22;62678;52.130;5.584;2023-02-28T05:25:32;2.70;99.90
11963;DHT22;62678;52.130;5.584;2023-02-28T05:27:59;2.70;99.90
11963;DHT22;62678;52.130;5.584;2023-02-28T05:30:26;2.70;99.90
11963;DHT22;62678;52.130;5.584;2023-02-28T05:32:54;2.60;99.90
11963;DHT22;62678;52.130;5.584;2023-02-28T05:35:21;2.60;99.90
11963;DHT22;62678;52.130;5.584;2023-02-28T05:37:48;2.50;99.90
11963;DHT22;62678;52.130;5.584;2023-02-28T05:40:15;2.70;99.90
11963;DHT22;62678;52.130;5.584;2023-02-28T05:42:42;2.60;99.90
11963;DHT22;62678;52.130;5.584;2023-02-28T05:45:10;2.70;99.90
11963;DHT22;62678;52.130;5.584;2023-02-28T05:47:36;2.80;99.90
11963;DHT22;62678;52.130;5.584;2023-02-28T05:50:06;2.80;99.90
11963;DHT22;62678;52.130;5.584;2023-02-28T05:52:34;2.80;99.90
11963;DHT22;62678;52.130;5.584;2023-02-28T05:55:01;2.80;99.90
11963;DHT22;62678;52.130;5.584;2023-02-28T05:57:28;2.80;99.90
11963;DHT22;62678;52.130;5.584;2023-02-28T05:59:55;2.70;99.90
11963;DHT22;62678;52.130;5.584;2023-02-28T06:02:22;2.70;99.90
11963;DHT22;62678;52.130;5.584;2023-02-28T06:04:48;2.80;99.90
11963;DHT22;62678;52.130;5.584;2023-02-28T06:07:17;2.80;99.90
11963;DHT22;62678;52.130;5.584;2023-02-28T06:09:43;2.80;99.90
11963;DHT22;62678;52.130;5.584;2023-02-28T06:12:10;2.80;99.90
11963;DHT22;62678;52.130;5.584;2023-02-28T06:14:37;2.80;99.90
11963;DHT22;62678;52.130;5.584;2023-02-28T06:17:04;2.70;99.90
11963;DHT22;62678;52.130;5.584;2023-02-28T06:19:31;2.70;99.90
11963;DHT22;62678;52.130;5.584;2023-02-28T06:21:59;2.70;99.90
11963;DHT22;62678;52.130;5.584;2023-02-28T06:24:27;2.70;99.90
11963;DHT22;62678;52.130;5.584;2023-02-28T06:26:55;2.70;99.90
11963;DHT22;62678;52.130;5.584;2023-02-28T06:29:24;2.70;99.90
11963;DHT22;62678;52.130;5.584;2023-02-28T06:31:51;2.80;99.90
11963;DHT22;62678;52.130;5.584;2023-02-28T06:34:18;2.70;99.90
11963;DHT22;62678;52.130;5.584;2023-02-28T06:36:45;2.60;99.90
11963;DHT22;62678;52.130;5.584;2023-02-28T06:39:11;2.70;99.90
11963;DHT22;62678;52.130;5.584;2023-02-28T06:41:40;2.70;99.90
11963;DHT22;62678;52.130;5.584;2023-02-28T06:44:12;2.60;99.90
11963;DHT22;62678;52.130;5.584;2023-02-28T06:46:39;2.50;99.90
11963;DHT22;62678;52.130;5.584;2023-02-28T06:49:06;2.50;99.90
11963;DHT22;62678;52.130;5.584;2023-02-28T06:51:36;2.50;99.90
11963;DHT22;62678;52.130;5.584;2023-02-28T06:54:03;2.50;99.90
11963;DHT22;62678;52.130;5.584;2023-02-28T06:56:30;2.50;99.90
11963;DHT22;62678;52.130;5.584;2023-02-28T06:58:58;2.50;99.90
11963;DHT22;62678;52.130;5.584;2023-02-28T07:01:25;2.50;99.90
11963;DHT22;62678;52.130;5.584;2023-02-28T07:03:54;2.50;99.90
11963;DHT22;62678;52.130;5.584;2023-02-28T07:06:22;2.60;99.90
11963;DHT22;62678;52.130;5.584;2023-02-28T07:08:49;2.60;99.90
11963;DHT22;62678;52.130;5.584;2023-02-28T07:11:16;2.60;99.90
11963;DHT22;62678;52.130;5.584;2023-02-28T07:13:43;2.60;99.90
11963;DHT22;62678;52.130;5.584;2023-02-28T07:16:14;2.60;99.90
11963;DHT22;62678;52.130;5.584;2023-02-28T07:18:41;2.70;99.90
11963;DHT22;62678;52.130;5.584;2023-02-28T07:21:09;2.80;99.90
11963;DHT22;62678;52.130;5.584;2023-02-28T07:23:36;2.90;99.90
11963;DHT22;62678;52.130;5.584;2023-02-28T07:26:04;2.90;99.90
11963;DHT22;62678;52.130;5.584;2023-02-28T07:28:31;3.00;99.90
11963;DHT22;62678;52.130;5.584;2023-02-28T07:31:03;2.90;99.90
11963;DHT22;62678;52.130;5.584;2023-02-28T07:33:31;3.00;99.90
11963;DHT22;62678;52.130;5.584;2023-02-28T07:36:02;2.90;99.90
11963;DHT22;62678;52.130;5.584;2023-02-28T07:38:30;3.00;99.90
11963;DHT22;62678;52.130;5.584;2023-02-28T07:40:56;3.00;99.90
11963;DHT22;62678;52.130;5.584;2023-02-28T07:43:23;3.10;99.90
11963;DHT22;62678;52.130;5.584;2023-02-28T07:45:50;3.30;99.90
11963;DHT22;62678;52.130;5.584;2023-02-28T07:48:17;3.30;99.90
11963;DHT22;62678;52.130;5.584;2023-02-28T07:50:45;3.30;99.90
11963;DHT22;62678;52.130;5.584;2023-02-28T07:53:20;3.40;99.90
11963;DHT22;62678;52.130;5.584;2023-02-28T07:55:47;3.60;99.90
11963;DHT22;62678;52.130;5.584;2023-02-28T07:58:14;3.70;99.90
11963;DHT22;62678;52.130;5.584;2023-02-28T08:00:41;3.60;99.90
11963;DHT22;62678;52.130;5.584;2023-02-28T08:03:09;3.80;99.90
11963;DHT22;62678;52.130;5.584;2023-02-28T08:05:38;3.90;99.90
11963;DHT22;62678;52.130;5.584;2023-02-28T08:08:07;4.20;99.90
11963;DHT22;62678;52.130;5.584;2023-02-28T08:10:36;4.10;99.90
11963;DHT22;62678;52.130;5.584;2023-02-28T08:13:03;4.10;99.90
11963;DHT22;62678;52.130;5.584;2023-02-28T08:15:30;4.30;99.90
11963;DHT22;62678;52.130;5.584;2023-02-28T08:17:58;4.30;99.90
11963;DHT22;62678;52.130;5.584;2023-02-28T08:20:26;4.30;99.90
11963;DHT22;62678;52.130;5.584;2023-02-28T08:22:53;4.30;99.90
11963;DHT22;62678;52.130;5.584;2023-02-28T08:25:21;4.50;99.90
11963;DHT22;62678;52.130;5.584;2023-02-28T08:27:50;4.60;99.90
11963;DHT22;62678;52.130;5.584;2023-02-28T08:30:17;4.70;99.90
11963;DHT22;62678;52.130;5.584;2023-02-28T08:32:44;4.50;99.90
11963;DHT22;62678;52.130;5.584;2023-02-28T08:35:11;4.40;99.90
11963;DHT22;62678;52.130;5.584;2023-02-28T08:37:38;4.60;99.90
11963;DHT22;62678;52.130;5.584;2023-02-28T08:40:06;4.40;99.90
11963;DHT22;62678;52.130;5.584;2023-02-28T08:42:36;4.50;99.90
11963;DHT22;62678;52.130;5.584;2023-02-28T08:45:04;4.50;99.90
11963;DHT22;62678;52.130;5.584;2023-02-28T08:47:32;4.50;99.90
11963;DHT22;62678;52.130;5.584;2023-02-28T08:49:59;4.80;99.90
11963;DHT22;62678;52.130;5.584;2023-02-28T08:52:26;5.10;99.90
11963;DHT22;62678;52.130;5.584;2023-02-28T08:54:53;5.30;99.90
11963;DHT22;62678;52.130;5.584;2023-02-28T08:57:20;5.40;99.90
11963;DHT22;62678;52.130;5.584;2023-02-28T08:59:48;5.60;99.90
11963;DHT22;62678;52.130;5.584;2023-02-28T09:02:16;5.70;99.90
11963;DHT22;62678;52.130;5.584;2023-02-28T09:04:43;5.70;99.90
11963;DHT22;62678;52.130;5.584;2023-02-28T09:07:11;5.60;99.90
11963;DHT22;62678;52.130;5.584;2023-02-28T09:09:38;5.50;99.90
11963;DHT22;62678;52.130;5.584;2023-02-28T09:12:19;5.30;99.90
11963;DHT22;62678;52.130;5.584;2023-02-28T09:14:47;5.30;99.90
11963;DHT22;62678;52.130;5.584;2023-02-28T09:17:14;5.20;99.90
11963;DHT22;62678;52.130;5.584;2023-02-28T09:19:42;5.20;99.90
11963;DHT22;62678;52.130;5.584;2023-02-28T09:22:09;5.10;99.90
11963;DHT22;62678;52.130;5.584;2023-02-28T09:24:37;5.30;99.90
11963;DHT22;62678;52.130;5.584;2023-02-28T09:27:05;5.10;99.90
11963;DHT22;62678;52.130;5.584;2023-02-28T09:29:33;5.20;99.90
11963;DHT22;62678;52.130;5.584;2023-02-28T09:32:02;5.30;99.90
11963;DHT22;62678;52.130;5.584;2023-02-28T09:34:31;5.40;99.90
11963;DHT22;62678;52.130;5.584;2023-02-28T09:36:58;5.40;99.90
11963;DHT22;62678;52.130;5.584;2023-02-28T09:39:25;5.50;99.90
11963;DHT22;62678;52.130;5.584;2023-02-28T09:41:55;5.50;99.90
11963;DHT22;62678;52.130;5.584;2023-02-28T09:44:28;5.60;99.90
11963;DHT22;62678;52.130;5.584;2023-02-28T09:47:01;5.80;99.90
11963;DHT22;62678;52.130;5.584;2023-02-28T09:49:37;6.00;99.90
11963;DHT22;62678;52.130;5.584;2023-02-28T09:52:09;6.30;99.90
11963;DHT22;62678;52.130;5.584;2023-02-28T09:54:37;6.50;99.90
11963;DHT22;62678;52.130;5.584;2023-02-28T09:57:08;6.50;99.90
11963;DHT22;62678;52.130;5.584;2023-02-28T09:59:47;6.40;99.90
11963;DHT22;62678;52.130;5.584;2023-02-28T10:02:49;6.30;99.90
11963;DHT22;62678;52.130;5.584;2023-02-28T10:05:20;6.20;99.90
11963;DHT22;62678;52.130;5.584;2023-02-28T10:08:12;6.20;99.90
11963;DHT22;62678;52.130;5.584;2023-02-28T10:10:42;6.20;99.90
11963;DHT22;62678;52.130;5.584;2023-02-28T10:13:17;6.00;99.90
11963;DHT22;62678;52.130;5.584;2023-02-28T10:15:51;5.90;99.90
11963;DHT22;62678;52.130;5.584;2023-02-28T10:18:24;5.90;99.90
11963;DHT22;62678;52.130;5.584;2023-02-28T10:20:51;6.00;99.90
11963;DHT22;62678;52.130;5.584;2023-02-28T10:23:23;6.00;99.90
11963;DHT22;62678;52.130;5.584;2023-02-28T10:25:57;6.10;99.90
11963;DHT22;62678;52.130;5.584;2023-02-28T10:28:26;6.10;99.90
11963;DHT22;62678;52.130;5.584;2023-02-28T10:30:56;6.20;99.90
11963;DHT22;62678;52.130;5.584;2023-02-28T10:33:29;6.10;99.90
11963;DHT22;62678;52.130;5.584;2023-02-28T10:35:57;6.20;99.90
11963;DHT22;62678;52.130;5.584;2023-02-28T10:38:26;6.00;99.90
11963;DHT22;62678;52.130;5.584;2023-02-28T10:41:05;6.00;99.90
11963;DHT22;62678;52.130;5.584;2023-02-28T10:43:43;5.90;99.90
11963;DHT22;62678;52.130;5.584;2023-02-28T10:46:14;5.90;99.90
11963;DHT22;62678;52.130;5.584;2023-02-28T10:49:02;5.90;99.90
11963;DHT22;62678;52.130;5.584;2023-02-28T10:51:36;5.80;99.90
11963;DHT22;62678;52.130;5.584;2023-02-28T10:54:04;5.90;99.90
11963;DHT22;62678;52.130;5.584;2023-02-28T10:56:32;6.00;99.90
11963;DHT22;62678;52.130;5.584;2023-02-28T10:59:00;6.00;99.90
11963;DHT22;62678;52.130;5.584;2023-02-28T11:01:37;6.00;99.90
11963;DHT22;62678;52.130;5.584;2023-02-28T11:04:17;6.00;99.90
11963;DHT22;62678;52.130;5.584;2023-02-28T11:06:45;6.10;99.90
11963;DHT22;62678;52.130;5.584;2023-02-28T11:09:22;6.10;99.90
11963;DHT22;62678;52.130;5.584;2023-02-28T11:11:50;6.20;99.90
11963;DHT22;62678;52.130;5.584;2023-02-28T11:14:21;6.10;99.90
11963;DHT22;62678;52.130;5.584;2023-02-28T11:16:49;6.10;99.90
11963;DHT22;62678;52.130;5.584;2023-02-28T11:19:22;6.00;99.90
11963;DHT22;62678;52.130;5.584;2023-02-28T11:21:56;6.10;99.90
11963;DHT22;62678;52.130;5.584;2023-02-28T11:24:27;6.10;99.90
11963;DHT22;62678;52.130;5.584;2023-02-28T11:26:55;6.10;99.90
11963;DHT22;62678;52.130;5.584;2023-02-28T11:29:24;6.10;99.90
11963;DHT22;62678;52.130;5.584;2023-02-28T11:32:13;6.30;99.90
11963;DHT22;62678;52.130;5.584;2023-02-28T11:34:45;6.40;99.90
11963;DHT22;62678;52.130;5.584;2023-02-28T11:37:15;6.50;99.90
11963;DHT22;62678;52.130;5.584;2023-02-28T11:39:43;6.50;99.90
11963;DHT22;62678;52.130;5.584;2023-02-28T11:42:31;6.40;99.90
11963;DHT22;62678;52.130;5.584;2023-02-28T11:45:14;6.50;99.90
11963;DHT22;62678;52.130;5.584;2023-02-28T11:47:48;6.50;99.90
11963;DHT22;62678;52.130;5.584;2023-02-28T11:50:33;6.60;99.90
11963;DHT22;62678;52.130;5.584;2023-02-28T11:53:13;6.60;99.90
11963;DHT22;62678;52.130;5.584;2023-02-28T11:55:44;6.60;99.90
11963;DHT22;62678;52.130;5.584;2023-02-28T11:58:20;6.50;99.90
11963;DHT22;62678;52.130;5.584;2023-02-28T12:01:09;6.40;99.90
11963;DHT22;62678;52.130;5.584;2023-02-28T12:03:45;6.50;99.90
11963;DHT22;62678;52.130;5.584;2023-02-28T12:06:22;6.60;99.90
11963;DHT22;62678;52.130;5.584;2023-02-28T12:09:04;6.80;99.90
11963;DHT22;62678;52.130;5.584;2023-02-28T12:11:47;6.80;99.90
11963;DHT22;62678;52.130;5.584;2023-02-28T12:17:25;6.90;99.90
11963;DHT22;62678;52.130;5.584;2023-02-28T12:20:00;6.80;99.90
11963;DHT22;62678;52.130;5.584;2023-02-28T12:22:31;6.90;99.90
11963;DHT22;62678;52.130;5.584;2023-02-28T12:25:22;6.90;99.90
11963;DHT22;62678;52.130;5.584;2023-02-28T12:27:51;6.90;99.90
11963;DHT22;62678;52.130;5.584;2023-02-28T12:30:22;6.90;99.90
11963;DHT22;62678;52.130;5.584;2023-02-28T12:32:54;6.80;99.90
11963;DHT22;62678;52.130;5.584;2023-02-28T12:35:25;6.80;99.90
11963;DHT22;62678;52.130;5.584;2023-02-28T12:37:59;6.80;99.90
11963;DHT22;62678;52.130;5.584;2023-02-28T12:40:43;7.00;99.90
11963;DHT22;62678;52.130;5.584;2023-02-28T12:43:13;7.10;99.90
11963;DHT22;62678;52.130;5.584;2023-02-28T12:45:44;7.10;99.90
11963;DHT22;62678;52.130;5.584;2023-02-28T12:48:17;7.10;99.90
11963;DHT22;62678;52.130;5.584;2023-02-28T12:50:47;7.00;99.90
11963;DHT22;62678;52.130;5.584;2023-02-28T12:53:23;7.00;99.90
11963;DHT22;62678;52.130;5.584;2023-02-28T12:55:58;7.10;99.90
11963;DHT22;62678;52.130;5.584;2023-02-28T12:58:31;7.00;99.90
11963;DHT22;62678;52.130;5.584;2023-02-28T13:01:26;7.00;99.90
11963;DHT22;62678;52.130;5.584;2023-02-28T13:07:11;6.80;99.90
11963;DHT22;62678;52.130;5.584;2023-02-28T13:09:52;6.70;99.90
11963;DHT22;62678;52.130;5.584;2023-02-28T13:12:19;7.00;99.90
11963;DHT22;62678;52.130;5.584;2023-02-28T13:14:48;7.10;99.90
11963;DHT22;62678;52.130;5.584;2023-02-28T13:17:19;7.10;99.90
11963;DHT22;62678;52.130;5.584;2023-02-28T13:19:56;7.10;99.90
11963;DHT22;62678;52.130;5.584;2023-02-28T13:22:44;7.10;99.90
11963;DHT22;62678;52.130;5.584;2023-02-28T13:31:27;7.30;99.90
11963;DHT22;62678;52.130;5.584;2023-02-28T13:34:14;7.30;99.90
11963;DHT22;62678;52.130;5.584;2023-02-28T13:36:41;7.20;99.90
11963;DHT22;62678;52.130;5.584;2023-02-28T13:42:34;7.40;99.90
11963;DHT22;62678;52.130;5.584;2023-02-28T13:45:24;7.30;99.90
11963;DHT22;62678;52.130;5.584;2023-02-28T13:47:55;7.30;99.90
11963;DHT22;62678;52.130;5.584;2023-02-28T13:50:28;7.20;99.90
11963;DHT22;62678;52.130;5.584;2023-02-28T13:55:53;7.30;99.90
11963;DHT22;62678;52.130;5.584;2023-02-28T14:01:26;7.40;99.90
11963;DHT22;62678;52.130;5.584;2023-02-28T14:04:18;7.40;99.90
11963;DHT22;62678;52.130;5.584;2023-02-28T14:06:51;7.50;99.90
11963;DHT22;62678;52.130;5.584;2023-02-28T14:09:24;7.60;99.90
11963;DHT22;62678;52.130;5.584;2023-02-28T14:11:53;7.60;99.90
11963;DHT22;62678;52.130;5.584;2023-02-28T14:17:24;7.60;99.90
11963;DHT22;62678;52.130;5.584;2023-02-28T14:19:54;7.50;99.90
11963;DHT22;62678;52.130;5.584;2023-02-28T14:22:43;7.50;99.90
11963;DHT22;62678;52.130;5.584;2023-02-28T14:25:20;7.40;99.90
11963;DHT22;62678;52.130;5.584;2023-02-28T14:27:54;7.40;99.90
11963;DHT22;62678;52.130;5.584;2023-02-28T14:31:00;7.40;99.90
11963;DHT22;62678;52.130;5.584;2023-02-28T14:33:40;7.40;99.90
11963;DHT22;62678;52.130;5.584;2023-02-28T14:36:20;7.40;99.90
11963;DHT22;62678;52.130;5.584;2023-02-28T14:38:51;7.40;99.90
11963;DHT22;62678;52.130;5.584;2023-02-28T14:41:22;7.50;99.90
11963;DHT22;62678;52.130;5.584;2023-02-28T14:43:55;7.50;99.90
11963;DHT22;62678;52.130;5.584;2023-02-28T14:46:24;7.60;99.90
11963;DHT22;62678;52.130;5.584;2023-02-28T14:48:53;7.60;99.90
11963;DHT22;62678;52.130;5.584;2023-02-28T14:51:23;7.70;99.90
11963;DHT22;62678;52.130;5.584;2023-02-28T14:53:52;7.70;99.90
11963;DHT22;62678;52.130;5.584;2023-02-28T14:56:26;7.70;99.90
11963;DHT22;62678;52.130;5.584;2023-02-28T14:58:55;7.60;99.90
11963;DHT22;62678;52.130;5.584;2023-02-28T15:01:23;7.50;99.90
11963;DHT22;62678;52.130;5.584;2023-02-28T15:03:58;7.70;99.90
11963;DHT22;62678;52.130;5.584;2023-02-28T15:06:29;7.80;99.90
11963;DHT22;62678;52.130;5.584;2023-02-28T15:09:10;7.80;99.90
11963;DHT22;62678;52.130;5.584;2023-02-28T15:11:38;7.60;99.90
11963;DHT22;62678;52.130;5.584;2023-02-28T15:14:06;7.50;99.90
11963;DHT22;62678;52.130;5.584;2023-02-28T15:16:35;7.60;99.90
11963;DHT22;62678;52.130;5.584;2023-02-28T15:19:06;7.70;99.90
11963;DHT22;62678;52.130;5.584;2023-02-28T15:21:39;7.50;99.90
11963;DHT22;62678;52.130;5.584;2023-02-28T15:24:12;7.60;99.90
11963;DHT22;62678;52.130;5.584;2023-02-28T15:26:43;7.70;99.90
11963;DHT22;62678;52.130;5.584;2023-02-28T15:29:14;7.70;99.90
11963;DHT22;62678;52.130;5.584;2023-02-28T15:31:44;7.70;99.90
11963;DHT22;62678;52.130;5.584;2023-02-28T15:34:18;7.60;99.90
11963;DHT22;62678;52.130;5.584;2023-02-28T15:36:46;7.70;99.90
11963;DHT22;62678;52.130;5.584;2023-02-28T15:39:27;7.60;99.90
11963;DHT22;62678;52.130;5.584;2023-02-28T15:42:10;7.70;99.90
11963;DHT22;62678;52.130;5.584;2023-02-28T15:44:37;7.80;99.90
11963;DHT22;62678;52.130;5.584;2023-02-28T15:47:06;8.10;99.90
11963;DHT22;62678;52.130;5.584;2023-02-28T15:49:39;8.30;99.90
11963;DHT22;62678;52.130;5.584;2023-02-28T15:52:13;8.50;99.90
11963;DHT22;62678;52.130;5.584;2023-02-28T15:54:41;8.70;99.90
11963;DHT22;62678;52.130;5.584;2023-02-28T15:57:13;8.50;99.90
11963;DHT22;62678;52.130;5.584;2023-02-28T15:59:49;8.60;99.90
11963;DHT22;62678;52.130;5.584;2023-02-28T16:02:19;8.70;99.90
11963;DHT22;62678;52.130;5.584;2023-02-28T16:05:19;8.40;99.90
11963;DHT22;62678;52.130;5.584;2023-02-28T16:07:52;8.40;99.90
11963;DHT22;62678;52.130;5.584;2023-02-28T16:10:18;8.40;99.90
11963;DHT22;62678;52.130;5.584;2023-02-28T16:12:45;8.00;99.90
11963;DHT22;62678;52.130;5.584;2023-02-28T16:15:19;7.80;99.90
11963;DHT22;62678;52.130;5.584;2023-02-28T16:17:47;7.80;99.90
11963;DHT22;62678;52.130;5.584;2023-02-28T16:20:16;7.50;99.90
11963;DHT22;62678;52.130;5.584;2023-02-28T16:22:43;7.30;99.90
11963;DHT22;62678;52.130;5.584;2023-02-28T16:25:13;7.20;99.90
11963;DHT22;62678;52.130;5.584;2023-02-28T16:27:41;7.10;99.90
11963;DHT22;62678;52.130;5.584;2023-02-28T16:30:17;7.00;99.90
11963;DHT22;62678;52.130;5.584;2023-02-28T16:32:45;6.90;99.90
11963;DHT22;62678;52.130;5.584;2023-02-28T16:35:12;6.80;99.90
11963;DHT22;62678;52.130;5.584;2023-02-28T16:37:39;6.90;99.90
11963;DHT22;62678;52.130;5.584;2023-02-28T16:40:07;6.70;99.90